< Typhoon 196801 1968 Season Typhoon 196803 >
Typhoon 196802 (KIM)
General InformationTrack Information on Google Maps || Disaster Info.ResourceGoogle EarthGE AnimationAtom FeedGeoJSON
Detalied Best Track (Time Zone = UTC)
Year Month Day Hour Lat. Long. Pressure (hPa) Wind (kt) Class Image Chart
1968 5 28 00 9.0 149.0 1008 0 2 -- Chart
1968 5 28 06 9.0 148.0 1006 0 2 -- Chart
1968 5 28 12 9.3 147.0 1008 0 2 -- Chart
1968 5 28 18 9.7 146.0 1006 0 2 -- Chart
1968 5 29 00 10.0 145.0 1008 0 2 -- Chart
1968 5 29 06 10.3 144.0 1006 0 2 -- Chart
1968 5 29 12 10.6 142.9 1008 0 2 -- Chart
1968 5 29 18 11.1 141.8 1006 0 2 -- Chart
1968 5 30 00 11.6 140.6 1006 0 2 -- Chart
1968 5 30 06 12.0 139.6 1006 0 2 -- Chart
1968 5 30 12 12.6 138.8 1008 0 2 -- Chart
1968 5 30 18 13.2 138.0 1006 0 2 -- Chart
1968 5 31 00 13.7 137.4 1006 0 2 -- Chart
1968 5 31 06 14.2 136.8 995 0 2 -- Chart
1968 5 31 12 14.6 136.2 985 0 9 -- Chart
1968 5 31 18 15.0 135.5 975 0 9 -- Chart
1968 6 1 00 15.5 134.8 975 0 9 -- Chart
1968 6 1 06 16.1 133.7 980 0 9 -- Chart
1968 6 1 12 16.6 133.2 980 0 9 -- Chart
1968 6 1 18 17.2 132.8 975 0 9 -- Chart
1968 6 2 00 17.5 132.5 975 0 9 -- Chart
1968 6 2 06 17.9 132.2 975 0 9 -- Chart
1968 6 2 12 18.3 132.0 965 0 9 -- Chart
1968 6 2 18 19.0 132.0 960 0 9 -- Chart
1968 6 3 00 19.6 132.1 950 0 9 -- Chart
1968 6 3 06 20.2 132.1 950 0 9 -- Chart
1968 6 3 12 21.0 132.3 955 0 9 -- Chart
1968 6 3 18 21.9 132.8 955 0 9 -- Chart
1968 6 4 00 23.0 133.6 960 0 9 -- Chart
1968 6 4 06 24.0 134.4 965 0 9 -- Chart
1968 6 4 12 25.0 135.5 975 0 9 -- Chart
1968 6 4 18 25.9 136.5 980 0 9 -- Chart
1968 6 5 00 27.0 137.6 985 0 9 -- Chart
1968 6 5 06 27.6 138.5 992 0 9 -- Chart
1968 6 5 12 28.5 140.0 996 0 9 -- Chart
1968 6 5 18 29.4 141.5 998 0 9 -- Chart
1968 6 6 00 30.2 143.0 1000 0 6 -- Chart
1968 6 6 06 30.8 144.8 1000 0 6 -- Chart
1968 6 6 12 31.3 146.8 1000 0 6 -- Chart
1968 6 6 18 31.8 148.9 1000 0 6 -- Chart
1968 6 7 00 32.1 151.0 1002 0 6 -- Chart
1968 6 7 06 32.7 154.1 1002 0 6 -- Chart
1968 6 7 12 33.3 157.2 1000 0 6 -- Chart
1968 6 7 18 34.3 160.0 998 0 6 -- Chart
1968 6 8 00 35.0 163.0 1000 0 6 -- Chart
1968 6 8 06 35.0 165.0 1000 0 6 -- Chart
1968 6 8 12 35.0 166.7 1000 0 6 -- Chart
1968 6 8 18 35.0 168.7 1000 0 6 -- Chart
1968 6 9 00 35.0 170.5 1000 0 6 -- Chart
1968 6 9 06 35.0 172.8 1002 0 6 -- Chart
1968 6 9 12 35.0 175.0 1004 0 6 -- Chart
1968 6 9 18 35.0 176.0 1004 0 6 -- Chart
1968 6 10 00 35.0 177.0 1004 0 6 -- Chart
1968 6 10 06 35.6 178.3 1006 0 6 -- Chart
1968 6 10 12 36.0 180.0 1006 0 6 -- Chart
Japan Meteorological Agency Best Track Data | Correction Date : 1992-01-27
< Typhoon 196801 1968 Season Typhoon 196803 >

Help